sensor_id;sensor_type;location;lat;lon;timestamp;P1;durP1;ratioP1;P2;durP2;ratioP2
75716;SDS011;64333;50.138;14.332;2023-06-19T00:01:42;7.97;;;7.18;;
75716;SDS011;64333;50.138;14.332;2023-06-19T00:04:09;9.43;;;7.43;;
75716;SDS011;64333;50.138;14.332;2023-06-19T00:06:34;9.07;;;7.65;;
75716;SDS011;64333;50.138;14.332;2023-06-19T00:09:00;8.65;;;7.85;;
75716;SDS011;64333;50.138;14.332;2023-06-19T00:11:25;9.68;;;7.68;;
75716;SDS011;64333;50.138;14.332;2023-06-19T00:13:52;9.13;;;7.28;;
75716;SDS011;64333;50.138;14.332;2023-06-19T00:16:17;10.10;;;7.00;;
75716;SDS011;64333;50.138;14.332;2023-06-19T00:18:44;9.93;;;7.72;;
75716;SDS011;64333;50.138;14.332;2023-06-19T00:21:09;9.60;;;7.70;;
75716;SDS011;64333;50.138;14.332;2023-06-19T00:23:35;8.57;;;7.57;;
75716;SDS011;64333;50.138;14.332;2023-06-19T00:26:00;10.43;;;7.63;;
75716;SDS011;64333;50.138;14.332;2023-06-19T00:28:27;7.65;;;6.63;;
75716;SDS011;64333;50.138;14.332;2023-06-19T00:30:53;8.85;;;6.97;;
75716;SDS011;64333;50.138;14.332;2023-06-19T00:33:18;10.02;;;8.15;;
75716;SDS011;64333;50.138;14.332;2023-06-19T00:35:44;10.02;;;7.55;;
75716;SDS011;64333;50.138;14.332;2023-06-19T00:38:09;14.48;;;12.85;;
75716;SDS011;64333;50.138;14.332;2023-06-19T00:40:35;24.25;;;18.40;;
75716;SDS011;64333;50.138;14.332;2023-06-19T00:43:00;8.73;;;7.40;;
75716;SDS011;64333;50.138;14.332;2023-06-19T00:45:26;66.15;;;40.30;;
75716;SDS011;64333;50.138;14.332;2023-06-19T00:47:52;23.30;;;17.02;;
75716;SDS011;64333;50.138;14.332;2023-06-19T00:50:19;9.77;;;8.15;;
75716;SDS011;64333;50.138;14.332;2023-06-19T00:52:46;9.18;;;8.05;;
75716;SDS011;64333;50.138;14.332;2023-06-19T00:55:11;9.43;;;8.05;;
75716;SDS011;64333;50.138;14.332;2023-06-19T00:57:38;10.15;;;7.68;;
75716;SDS011;64333;50.138;14.332;2023-06-19T01:00:05;16.08;;;14.50;;
75716;SDS011;64333;50.138;14.332;2023-06-19T01:02:32;13.18;;;10.73;;
75716;SDS011;64333;50.138;14.332;2023-06-19T01:04:57;11.25;;;8.73;;
75716;SDS011;64333;50.138;14.332;2023-06-19T01:10:07;8.57;;;7.65;;
75716;SDS011;64333;50.138;14.332;2023-06-19T01:12:44;11.25;;;9.48;;
75716;SDS011;64333;50.138;14.332;2023-06-19T01:15:15;10.38;;;9.27;;
75716;SDS011;64333;50.138;14.332;2023-06-19T01:17:41;8.38;;;7.47;;
75716;SDS011;64333;50.138;14.332;2023-06-19T01:20:08;8.18;;;7.38;;
75716;SDS011;64333;50.138;14.332;2023-06-19T01:22:36;11.48;;;9.80;;
75716;SDS011;64333;50.138;14.332;2023-06-19T01:25:02;13.63;;;10.65;;
75716;SDS011;64333;50.138;14.332;2023-06-19T01:27:31;10.48;;;8.80;;
75716;SDS011;64333;50.138;14.332;2023-06-19T01:29:58;16.45;;;12.82;;
75716;SDS011;64333;50.138;14.332;2023-06-19T01:32:36;8.35;;;7.25;;
75716;SDS011;64333;50.138;14.332;2023-06-19T01:35:17;13.23;;;10.90;;
75716;SDS011;64333;50.138;14.332;2023-06-19T01:37:47;21.25;;;18.05;;
75716;SDS011;64333;50.138;14.332;2023-06-19T01:40:15;10.05;;;9.00;;
75716;SDS011;64333;50.138;14.332;2023-06-19T01:42:42;12.00;;;9.68;;
75716;SDS011;64333;50.138;14.332;2023-06-19T01:45:08;15.27;;;13.63;;
75716;SDS011;64333;50.138;14.332;2023-06-19T01:47:34;16.30;;;14.07;;
75716;SDS011;64333;50.138;14.332;2023-06-19T01:49:59;14.35;;;12.45;;
75716;SDS011;64333;50.138;14.332;2023-06-19T01:52:25;12.55;;;10.65;;
75716;SDS011;64333;50.138;14.332;2023-06-19T01:54:51;10.88;;;9.77;;
75716;SDS011;64333;50.138;14.332;2023-06-19T01:57:16;16.05;;;14.20;;
75716;SDS011;64333;50.138;14.332;2023-06-19T01:59:42;21.98;;;16.92;;
75716;SDS011;64333;50.138;14.332;2023-06-19T02:02:07;10.93;;;9.50;;
75716;SDS011;64333;50.138;14.332;2023-06-19T02:04:32;9.20;;;8.13;;
75716;SDS011;64333;50.138;14.332;2023-06-19T02:06:58;13.25;;;11.82;;
75716;SDS011;64333;50.138;14.332;2023-06-19T02:09:23;13.88;;;9.93;;
75716;SDS011;64333;50.138;14.332;2023-06-19T02:11:49;8.63;;;7.82;;
75716;SDS011;64333;50.138;14.332;2023-06-19T02:14:14;17.38;;;13.60;;
75716;SDS011;64333;50.138;14.332;2023-06-19T02:16:39;12.23;;;10.48;;
75716;SDS011;64333;50.138;14.332;2023-06-19T02:19:08;9.85;;;7.97;;
75716;SDS011;64333;50.138;14.332;2023-06-19T02:21:35;14.43;;;12.43;;
75716;SDS011;64333;50.138;14.332;2023-06-19T02:24:00;45.97;;;30.23;;
75716;SDS011;64333;50.138;14.332;2023-06-19T02:26:26;125.93;;;66.97;;
75716;SDS011;64333;50.138;14.332;2023-06-19T02:28:53;130.95;;;51.83;;
75716;SDS011;64333;50.138;14.332;2023-06-19T02:31:19;94.97;;;46.42;;
75716;SDS011;64333;50.138;14.332;2023-06-19T02:33:45;60.13;;;31.20;;
75716;SDS011;64333;50.138;14.332;2023-06-19T02:36:10;15.65;;;12.05;;
75716;SDS011;64333;50.138;14.332;2023-06-19T02:38:36;12.07;;;10.63;;
75716;SDS011;64333;50.138;14.332;2023-06-19T02:41:01;12.98;;;10.30;;
75716;SDS011;64333;50.138;14.332;2023-06-19T02:43:27;14.52;;;11.73;;
75716;SDS011;64333;50.138;14.332;2023-06-19T02:45:52;13.00;;;11.60;;
75716;SDS011;64333;50.138;14.332;2023-06-19T02:48:18;14.07;;;11.77;;
75716;SDS011;64333;50.138;14.332;2023-06-19T02:50:44;13.15;;;11.38;;
75716;SDS011;64333;50.138;14.332;2023-06-19T02:53:09;15.70;;;11.80;;
75716;SDS011;64333;50.138;14.332;2023-06-19T02:55:36;44.70;;;29.35;;
75716;SDS011;64333;50.138;14.332;2023-06-19T02:58:01;17.80;;;15.85;;
75716;SDS011;64333;50.138;14.332;2023-06-19T03:00:28;20.55;;;16.60;;
75716;SDS011;64333;50.138;14.332;2023-06-19T03:02:53;15.13;;;12.48;;
75716;SDS011;64333;50.138;14.332;2023-06-19T03:05:19;15.93;;;12.20;;
75716;SDS011;64333;50.138;14.332;2023-06-19T03:07:44;16.10;;;13.80;;
75716;SDS011;64333;50.138;14.332;2023-06-19T03:10:10;15.68;;;13.00;;
75716;SDS011;64333;50.138;14.332;2023-06-19T03:12:35;15.15;;;12.55;;
75716;SDS011;64333;50.138;14.332;2023-06-19T03:15:01;17.40;;;13.85;;
75716;SDS011;64333;50.138;14.332;2023-06-19T03:17:26;39.63;;;24.13;;
75716;SDS011;64333;50.138;14.332;2023-06-19T03:19:51;24.35;;;19.20;;
75716;SDS011;64333;50.138;14.332;2023-06-19T03:22:17;19.48;;;15.23;;
75716;SDS011;64333;50.138;14.332;2023-06-19T03:24:44;23.58;;;21.10;;
75716;SDS011;64333;50.138;14.332;2023-06-19T03:27:09;26.73;;;21.92;;
75716;SDS011;64333;50.138;14.332;2023-06-19T03:29:35;20.38;;;15.98;;
75716;SDS011;64333;50.138;14.332;2023-06-19T03:32:00;23.55;;;19.63;;
75716;SDS011;64333;50.138;14.332;2023-06-19T03:34:26;23.48;;;18.98;;
75716;SDS011;64333;50.138;14.332;2023-06-19T03:36:51;18.38;;;15.65;;
75716;SDS011;64333;50.138;14.332;2023-06-19T03:39:16;23.30;;;16.05;;
75716;SDS011;64333;50.138;14.332;2023-06-19T03:41:42;18.90;;;15.90;;
75716;SDS011;64333;50.138;14.332;2023-06-19T03:44:07;86.95;;;64.95;;
75716;SDS011;64333;50.138;14.332;2023-06-19T03:46:32;33.63;;;27.73;;
75716;SDS011;64333;50.138;14.332;2023-06-19T03:48:58;40.53;;;32.45;;
75716;SDS011;64333;50.138;14.332;2023-06-19T03:51:23;17.92;;;14.80;;
75716;SDS011;64333;50.138;14.332;2023-06-19T03:53:48;16.38;;;13.20;;
75716;SDS011;64333;50.138;14.332;2023-06-19T03:56:14;14.52;;;13.00;;
75716;SDS011;64333;50.138;14.332;2023-06-19T03:58:39;18.88;;;15.15;;
75716;SDS011;64333;50.138;14.332;2023-06-19T04:01:05;22.77;;;18.35;;
75716;SDS011;64333;50.138;14.332;2023-06-19T04:03:30;18.33;;;15.02;;
75716;SDS011;64333;50.138;14.332;2023-06-19T04:05:58;17.88;;;14.48;;
75716;SDS011;64333;50.138;14.332;2023-06-19T04:08:24;18.05;;;14.65;;
75716;SDS011;64333;50.138;14.332;2023-06-19T04:10:50;17.45;;;14.82;;
75716;SDS011;64333;50.138;14.332;2023-06-19T04:13:15;18.83;;;15.70;;
75716;SDS011;64333;50.138;14.332;2023-06-19T04:15:41;20.40;;;15.30;;
75716;SDS011;64333;50.138;14.332;2023-06-19T04:18:09;20.20;;;15.50;;
75716;SDS011;64333;50.138;14.332;2023-06-19T04:20:34;19.23;;;15.40;;
75716;SDS011;64333;50.138;14.332;2023-06-19T04:23:00;21.92;;;16.85;;
75716;SDS011;64333;50.138;14.332;2023-06-19T04:25:25;38.53;;;27.35;;
75716;SDS011;64333;50.138;14.332;2023-06-19T04:27:50;70.55;;;45.67;;
75716;SDS011;64333;50.138;14.332;2023-06-19T04:30:16;17.73;;;14.32;;
75716;SDS011;64333;50.138;14.332;2023-06-19T04:32:41;19.73;;;14.73;;
75716;SDS011;64333;50.138;14.332;2023-06-19T04:35:10;17.95;;;14.05;;
75716;SDS011;64333;50.138;14.332;2023-06-19T04:37:35;23.77;;;18.83;;
75716;SDS011;64333;50.138;14.332;2023-06-19T04:40:01;43.90;;;34.70;;
75716;SDS011;64333;50.138;14.332;2023-06-19T04:42:28;22.60;;;19.50;;
75716;SDS011;64333;50.138;14.332;2023-06-19T04:44:53;19.33;;;15.70;;
75716;SDS011;64333;50.138;14.332;2023-06-19T04:47:22;23.70;;;18.05;;
75716;SDS011;64333;50.138;14.332;2023-06-19T04:49:48;17.77;;;14.82;;
75716;SDS011;64333;50.138;14.332;2023-06-19T04:52:13;16.55;;;14.43;;
75716;SDS011;64333;50.138;14.332;2023-06-19T04:54:39;18.42;;;13.73;;
75716;SDS011;64333;50.138;14.332;2023-06-19T04:57:04;16.92;;;12.48;;
75716;SDS011;64333;50.138;14.332;2023-06-19T04:59:30;16.58;;;12.80;;
75716;SDS011;64333;50.138;14.332;2023-06-19T05:01:56;18.95;;;14.18;;
75716;SDS011;64333;50.138;14.332;2023-06-19T05:04:22;15.68;;;12.70;;
75716;SDS011;64333;50.138;14.332;2023-06-19T05:06:48;15.30;;;13.70;;
75716;SDS011;64333;50.138;14.332;2023-06-19T05:09:14;17.90;;;13.73;;
75716;SDS011;64333;50.138;14.332;2023-06-19T05:11:39;16.38;;;13.75;;
75716;SDS011;64333;50.138;14.332;2023-06-19T05:14:05;18.55;;;13.52;;
75716;SDS011;64333;50.138;14.332;2023-06-19T05:16:31;19.15;;;13.75;;
75716;SDS011;64333;50.138;14.332;2023-06-19T05:18:56;16.80;;;12.25;;
75716;SDS011;64333;50.138;14.332;2023-06-19T05:21:22;17.45;;;13.43;;
75716;SDS011;64333;50.138;14.332;2023-06-19T05:23:47;16.13;;;13.82;;
75716;SDS011;64333;50.138;14.332;2023-06-19T05:26:16;15.02;;;13.20;;
75716;SDS011;64333;50.138;14.332;2023-06-19T05:28:42;16.70;;;13.32;;
75716;SDS011;64333;50.138;14.332;2023-06-19T05:31:07;15.13;;;13.20;;
75716;SDS011;64333;50.138;14.332;2023-06-19T05:33:33;20.55;;;16.20;;
75716;SDS011;64333;50.138;14.332;2023-06-19T05:35:59;16.17;;;14.45;;
75716;SDS011;64333;50.138;14.332;2023-06-19T05:38:24;16.42;;;13.50;;
75716;SDS011;64333;50.138;14.332;2023-06-19T05:40:51;17.75;;;14.32;;
75716;SDS011;64333;50.138;14.332;2023-06-19T05:43:17;17.25;;;13.02;;
75716;SDS011;64333;50.138;14.332;2023-06-19T05:45:43;14.57;;;12.40;;
75716;SDS011;64333;50.138;14.332;2023-06-19T05:48:09;17.20;;;13.32;;
75716;SDS011;64333;50.138;14.332;2023-06-19T05:50:35;14.52;;;12.50;;
75716;SDS011;64333;50.138;14.332;2023-06-19T05:53:00;24.83;;;18.60;;
75716;SDS011;64333;50.138;14.332;2023-06-19T05:55:25;16.25;;;13.30;;
75716;SDS011;64333;50.138;14.332;2023-06-19T05:57:56;14.77;;;12.68;;
75716;SDS011;64333;50.138;14.332;2023-06-19T06:00:22;16.88;;;13.85;;
75716;SDS011;64333;50.138;14.332;2023-06-19T06:02:50;14.85;;;13.25;;
75716;SDS011;64333;50.138;14.332;2023-06-19T06:05:16;13.85;;;12.30;;
75716;SDS011;64333;50.138;14.332;2023-06-19T06:07:44;16.50;;;12.80;;
75716;SDS011;64333;50.138;14.332;2023-06-19T06:10:10;16.58;;;12.38;;
75716;SDS011;64333;50.138;14.332;2023-06-19T06:12:35;14.38;;;12.23;;
75716;SDS011;64333;50.138;14.332;2023-06-19T06:15:02;15.65;;;13.10;;
75716;SDS011;64333;50.138;14.332;2023-06-19T06:17:28;15.75;;;13.30;;
75716;SDS011;64333;50.138;14.332;2023-06-19T06:19:54;18.70;;;14.05;;
75716;SDS011;64333;50.138;14.332;2023-06-19T06:22:20;17.10;;;12.48;;
75716;SDS011;64333;50.138;14.332;2023-06-19T06:24:45;17.98;;;13.35;;
75716;SDS011;64333;50.138;14.332;2023-06-19T06:27:12;15.18;;;11.93;;
75716;SDS011;64333;50.138;14.332;2023-06-19T06:29:38;13.80;;;12.30;;
75716;SDS011;64333;50.138;14.332;2023-06-19T06:32:05;13.77;;;12.25;;
75716;SDS011;64333;50.138;14.332;2023-06-19T06:34:32;14.30;;;12.18;;
75716;SDS011;64333;50.138;14.332;2023-06-19T06:36:59;15.50;;;12.55;;
75716;SDS011;64333;50.138;14.332;2023-06-19T06:39:25;14.90;;;12.10;;
75716;SDS011;64333;50.138;14.332;2023-06-19T06:41:50;16.15;;;13.02;;
75716;SDS011;64333;50.138;14.332;2023-06-19T06:44:16;24.83;;;18.50;;
75716;SDS011;64333;50.138;14.332;2023-06-19T06:46:42;14.57;;;12.20;;
75716;SDS011;64333;50.138;14.332;2023-06-19T06:49:07;15.65;;;12.80;;
75716;SDS011;64333;50.138;14.332;2023-06-19T06:51:33;16.33;;;12.65;;
75716;SDS011;64333;50.138;14.332;2023-06-19T06:53:58;13.60;;;12.13;;
75716;SDS011;64333;50.138;14.332;2023-06-19T06:56:24;14.65;;;12.70;;
75716;SDS011;64333;50.138;14.332;2023-06-19T06:58:50;15.13;;;11.55;;
75716;SDS011;64333;50.138;14.332;2023-06-19T07:01:15;14.48;;;12.38;;
75716;SDS011;64333;50.138;14.332;2023-06-19T07:03:41;21.42;;;11.75;;
75716;SDS011;64333;50.138;14.332;2023-06-19T07:06:06;13.10;;;11.02;;
75716;SDS011;64333;50.138;14.332;2023-06-19T07:08:32;13.55;;;11.27;;
75716;SDS011;64333;50.138;14.332;2023-06-19T07:10:57;13.27;;;11.07;;
75716;SDS011;64333;50.138;14.332;2023-06-19T07:13:23;11.88;;;10.65;;
75716;SDS011;64333;50.138;14.332;2023-06-19T07:15:48;14.02;;;11.82;;
75716;SDS011;64333;50.138;14.332;2023-06-19T07:18:13;16.63;;;13.02;;
75716;SDS011;64333;50.138;14.332;2023-06-19T07:20:39;12.90;;;11.60;;
75716;SDS011;64333;50.138;14.332;2023-06-19T07:23:05;14.32;;;11.48;;
75716;SDS011;64333;50.138;14.332;2023-06-19T07:25:31;15.95;;;12.23;;
75716;SDS011;64333;50.138;14.332;2023-06-19T07:27:59;12.25;;;10.95;;
75716;SDS011;64333;50.138;14.332;2023-06-19T07:30:25;12.95;;;11.55;;
75716;SDS011;64333;50.138;14.332;2023-06-19T07:32:51;14.48;;;11.75;;
75716;SDS011;64333;50.138;14.332;2023-06-19T07:35:16;13.90;;;12.30;;
75716;SDS011;64333;50.138;14.332;2023-06-19T07:37:42;12.93;;;11.00;;
75716;SDS011;64333;50.138;14.332;2023-06-19T07:40:07;15.15;;;12.13;;
75716;SDS011;64333;50.138;14.332;2023-06-19T07:42:33;12.57;;;11.10;;
75716;SDS011;64333;50.138;14.332;2023-06-19T07:44:59;14.32;;;10.45;;
75716;SDS011;64333;50.138;14.332;2023-06-19T07:47:26;12.90;;;11.60;;
75716;SDS011;64333;50.138;14.332;2023-06-19T07:49:51;16.50;;;12.05;;
75716;SDS011;64333;50.138;14.332;2023-06-19T07:52:17;15.88;;;10.90;;
75716;SDS011;64333;50.138;14.332;2023-06-19T07:55:15;15.02;;;11.40;;
75716;SDS011;64333;50.138;14.332;2023-06-19T07:57:34;13.05;;;9.85;;
75716;SDS011;64333;50.138;14.332;2023-06-19T08:00:01;12.25;;;10.95;;
75716;SDS011;64333;50.138;14.332;2023-06-19T08:02:32;12.35;;;11.05;;
75716;SDS011;64333;50.138;14.332;2023-06-19T08:04:57;12.05;;;10.45;;
75716;SDS011;64333;50.138;14.332;2023-06-19T08:07:23;12.93;;;10.32;;
75716;SDS011;64333;50.138;14.332;2023-06-19T08:09:48;12.07;;;10.52;;
75716;SDS011;64333;50.138;14.332;2023-06-19T08:12:14;12.48;;;9.60;;
75716;SDS011;64333;50.138;14.332;2023-06-19T08:14:39;12.98;;;10.82;;
75716;SDS011;64333;50.138;14.332;2023-06-19T08:17:05;11.93;;;10.10;;
75716;SDS011;64333;50.138;14.332;2023-06-19T08:19:31;11.98;;;10.55;;
75716;SDS011;64333;50.138;14.332;2023-06-19T08:21:56;12.63;;;11.32;;
75716;SDS011;64333;50.138;14.332;2023-06-19T08:24:21;13.30;;;10.73;;
75716;SDS011;64333;50.138;14.332;2023-06-19T08:26:47;13.48;;;11.38;;
75716;SDS011;64333;50.138;14.332;2023-06-19T08:29:16;15.75;;;11.57;;
75716;SDS011;64333;50.138;14.332;2023-06-19T08:31:41;12.95;;;10.77;;
75716;SDS011;64333;50.138;14.332;2023-06-19T08:34:07;12.98;;;10.88;;
75716;SDS011;64333;50.138;14.332;2023-06-19T08:36:34;13.40;;;11.20;;
75716;SDS011;64333;50.138;14.332;2023-06-19T08:39:00;15.10;;;11.25;;
75716;SDS011;64333;50.138;14.332;2023-06-19T08:41:25;16.08;;;11.38;;
75716;SDS011;64333;50.138;14.332;2023-06-19T08:43:51;14.40;;;11.15;;
75716;SDS011;64333;50.138;14.332;2023-06-19T08:46:17;11.80;;;10.60;;
75716;SDS011;64333;50.138;14.332;2023-06-19T08:48:44;15.45;;;10.93;;
75716;SDS011;64333;50.138;14.332;2023-06-19T08:51:11;13.52;;;10.90;;
75716;SDS011;64333;50.138;14.332;2023-06-19T08:53:44;12.68;;;10.80;;
75716;SDS011;64333;50.138;14.332;2023-06-19T08:56:11;15.02;;;9.75;;
75716;SDS011;64333;50.138;14.332;2023-06-19T08:58:36;13.80;;;10.45;;
75716;SDS011;64333;50.138;14.332;2023-06-19T09:01:02;12.50;;;10.65;;
75716;SDS011;64333;50.138;14.332;2023-06-19T09:03:28;12.82;;;10.35;;
75716;SDS011;64333;50.138;14.332;2023-06-19T09:05:53;14.10;;;11.25;;
75716;SDS011;64333;50.138;14.332;2023-06-19T09:08:19;14.15;;;10.48;;
75716;SDS011;64333;50.138;14.332;2023-06-19T09:11:01;12.82;;;10.35;;
75716;SDS011;64333;50.138;14.332;2023-06-19T09:13:28;12.73;;;10.27;;
75716;SDS011;64333;50.138;14.332;2023-06-19T09:15:58;14.20;;;10.75;;
75716;SDS011;64333;50.138;14.332;2023-06-19T09:18:24;12.07;;;10.85;;
75716;SDS011;64333;50.138;14.332;2023-06-19T09:20:51;12.55;;;10.82;;
75716;SDS011;64333;50.138;14.332;2023-06-19T09:23:19;12.23;;;10.80;;
75716;SDS011;64333;50.138;14.332;2023-06-19T09:25:52;12.10;;;10.00;;
75716;SDS011;64333;50.138;14.332;2023-06-19T09:28:20;10.52;;;9.43;;
75716;SDS011;64333;50.138;14.332;2023-06-19T09:31:00;11.23;;;10.02;;
75716;SDS011;64333;50.138;14.332;2023-06-19T09:33:30;12.43;;;10.52;;
75716;SDS011;64333;50.138;14.332;2023-06-19T09:35:58;11.40;;;10.30;;
75716;SDS011;64333;50.138;14.332;2023-06-19T09:38:26;10.75;;;9.52;;
75716;SDS011;64333;50.138;14.332;2023-06-19T09:40:53;11.48;;;9.77;;
75716;SDS011;64333;50.138;14.332;2023-06-19T09:43:21;12.43;;;9.75;;
75716;SDS011;64333;50.138;14.332;2023-06-19T09:45:49;11.30;;;9.88;;
75716;SDS011;64333;50.138;14.332;2023-06-19T09:48:19;10.57;;;9.48;;
75716;SDS011;64333;50.138;14.332;2023-06-19T09:50:48;12.98;;;9.57;;
75716;SDS011;64333;50.138;14.332;2023-06-19T09:53:17;9.82;;;8.82;;
75716;SDS011;64333;50.138;14.332;2023-06-19T09:55:43;9.57;;;8.65;;
75716;SDS011;64333;50.138;14.332;2023-06-19T09:58:09;12.60;;;9.18;;
75716;SDS011;64333;50.138;14.332;2023-06-19T10:00:35;10.00;;;9.02;;
75716;SDS011;64333;50.138;14.332;2023-06-19T10:03:02;10.10;;;9.10;;
75716;SDS011;64333;50.138;14.332;2023-06-19T10:05:32;10.68;;;9.15;;
75716;SDS011;64333;50.138;14.332;2023-06-19T10:07:57;10.02;;;8.07;;
75716;SDS011;64333;50.138;14.332;2023-06-19T10:10:27;10.60;;;9.40;;
75716;SDS011;64333;50.138;14.332;2023-06-19T10:13:00;9.88;;;8.98;;
75716;SDS011;64333;50.138;14.332;2023-06-19T10:15:41;9.75;;;8.85;;
75716;SDS011;64333;50.138;14.332;2023-06-19T10:18:08;9.95;;;8.57;;
75716;SDS011;64333;50.138;14.332;2023-06-19T10:20:37;9.93;;;9.02;;
75716;SDS011;64333;50.138;14.332;2023-06-19T10:23:16;8.65;;;7.63;;
75716;SDS011;64333;50.138;14.332;2023-06-19T10:25:44;10.45;;;9.38;;
75716;SDS011;64333;50.138;14.332;2023-06-19T10:28:22;8.63;;;7.93;;
75716;SDS011;64333;50.138;14.332;2023-06-19T10:31:04;9.45;;;8.55;;
75716;SDS011;64333;50.138;14.332;2023-06-19T10:33:32;10.25;;;9.00;;
75716;SDS011;64333;50.138;14.332;2023-06-19T10:36:17;8.75;;;7.95;;
75716;SDS011;64333;50.138;14.332;2023-06-19T10:38:46;10.48;;;9.18;;
75716;SDS011;64333;50.138;14.332;2023-06-19T10:41:18;8.75;;;8.02;;
75716;SDS011;64333;50.138;14.332;2023-06-19T10:46:33;8.50;;;7.65;;
75716;SDS011;64333;50.138;14.332;2023-06-19T10:49:03;9.57;;;8.65;;
75716;SDS011;64333;50.138;14.332;2023-06-19T10:51:31;9.73;;;8.75;;
75716;SDS011;64333;50.138;14.332;2023-06-19T10:53:59;9.80;;;8.90;;
75716;SDS011;64333;50.138;14.332;2023-06-19T10:56:25;9.68;;;8.90;;
75716;SDS011;64333;50.138;14.332;2023-06-19T10:59:03;9.38;;;8.18;;
75716;SDS011;64333;50.138;14.332;2023-06-19T11:01:37;10.35;;;9.35;;
75716;SDS011;64333;50.138;14.332;2023-06-19T11:04:05;9.63;;;8.65;;
75716;SDS011;64333;50.138;14.332;2023-06-19T11:06:31;8.93;;;8.13;;
75716;SDS011;64333;50.138;14.332;2023-06-19T11:08:57;9.90;;;9.00;;
75716;SDS011;64333;50.138;14.332;2023-06-19T11:11:34;9.70;;;8.90;;
75716;SDS011;64333;50.138;14.332;2023-06-19T11:14:01;8.55;;;7.85;;
75716;SDS011;64333;50.138;14.332;2023-06-19T11:16:27;9.70;;;8.20;;
75716;SDS011;64333;50.138;14.332;2023-06-19T11:18:58;8.02;;;7.30;;
75716;SDS011;64333;50.138;14.332;2023-06-19T11:21:31;8.73;;;8.02;;
75716;SDS011;64333;50.138;14.332;2023-06-19T11:24:02;8.43;;;7.72;;
75716;SDS011;64333;50.138;14.332;2023-06-19T11:26:28;8.40;;;7.70;;
75716;SDS011;64333;50.138;14.332;2023-06-19T11:28:53;8.20;;;7.57;;
75716;SDS011;64333;50.138;14.332;2023-06-19T11:31:24;8.40;;;7.70;;
75716;SDS011;64333;50.138;14.332;2023-06-19T11:33:58;9.30;;;7.57;;
75716;SDS011;64333;50.138;14.332;2023-06-19T11:36:24;8.50;;;7.80;;
75716;SDS011;64333;50.138;14.332;2023-06-19T11:38:51;7.55;;;6.85;;
75716;SDS011;64333;50.138;14.332;2023-06-19T11:41:26;8.45;;;7.63;;
75716;SDS011;64333;50.138;14.332;2023-06-19T11:43:58;7.95;;;7.15;;
75716;SDS011;64333;50.138;14.332;2023-06-19T11:46:28;9.70;;;8.85;;
75716;SDS011;64333;50.138;14.332;2023-06-19T11:48:55;13.43;;;12.05;;
75716;SDS011;64333;50.138;14.332;2023-06-19T11:51:31;9.30;;;8.38;;
75716;SDS011;64333;50.138;14.332;2023-06-19T11:53:57;9.10;;;8.23;;
75716;SDS011;64333;50.138;14.332;2023-06-19T11:56:22;9.02;;;8.13;;
75716;SDS011;64333;50.138;14.332;2023-06-19T11:58:48;8.23;;;7.43;;
75716;SDS011;64333;50.138;14.332;2023-06-19T12:01:13;9.10;;;8.20;;
75716;SDS011;64333;50.138;14.332;2023-06-19T12:03:38;9.45;;;8.45;;
75716;SDS011;64333;50.138;14.332;2023-06-19T12:06:05;8.57;;;7.78;;
75716;SDS011;64333;50.138;14.332;2023-06-19T12:08:31;8.98;;;8.15;;
75716;SDS011;64333;50.138;14.332;2023-06-19T12:10:56;8.70;;;8.00;;
75716;SDS011;64333;50.138;14.332;2023-06-19T12:13:21;8.30;;;7.60;;
75716;SDS011;64333;50.138;14.332;2023-06-19T12:15:47;8.98;;;8.07;;
75716;SDS011;64333;50.138;14.332;2023-06-19T12:18:12;9.07;;;8.13;;
75716;SDS011;64333;50.138;14.332;2023-06-19T12:20:38;8.32;;;7.45;;
75716;SDS011;64333;50.138;14.332;2023-06-19T12:23:04;9.98;;;8.13;;
75716;SDS011;64333;50.138;14.332;2023-06-19T12:25:32;10.32;;;8.48;;
75716;SDS011;64333;50.138;14.332;2023-06-19T12:27:58;8.35;;;7.60;;
75716;SDS011;64333;50.138;14.332;2023-06-19T12:30:23;8.30;;;7.50;;
75716;SDS011;64333;50.138;14.332;2023-06-19T12:32:49;8.27;;;7.53;;
75716;SDS011;64333;50.138;14.332;2023-06-19T12:35:15;10.50;;;7.35;;
75716;SDS011;64333;50.138;14.332;2023-06-19T12:37:40;8.32;;;7.60;;
75716;SDS011;64333;50.138;14.332;2023-06-19T12:40:06;7.72;;;7.13;;
75716;SDS011;64333;50.138;14.332;2023-06-19T12:42:35;8.65;;;7.85;;
75716;SDS011;64333;50.138;14.332;2023-06-19T12:45:01;8.20;;;7.32;;
75716;SDS011;64333;50.138;14.332;2023-06-19T12:47:28;7.60;;;6.90;;
75716;SDS011;64333;50.138;14.332;2023-06-19T12:49:53;8.20;;;7.50;;
75716;SDS011;64333;50.138;14.332;2023-06-19T12:52:19;7.57;;;6.78;;
75716;SDS011;64333;50.138;14.332;2023-06-19T12:54:44;8.73;;;7.90;;
75716;SDS011;64333;50.138;14.332;2023-06-19T12:57:09;8.43;;;7.63;;
75716;SDS011;64333;50.138;14.332;2023-06-19T12:59:35;9.07;;;8.13;;
75716;SDS011;64333;50.138;14.332;2023-06-19T13:02:00;9.27;;;8.48;;
75716;SDS011;64333;50.138;14.332;2023-06-19T13:04:26;8.63;;;7.82;;
75716;SDS011;64333;50.138;14.332;2023-06-19T13:06:51;8.60;;;7.80;;
75716;SDS011;64333;50.138;14.332;2023-06-19T13:09:16;10.07;;;7.93;;
75716;SDS011;64333;50.138;14.332;2023-06-19T13:11:42;9.10;;;7.95;;
75716;SDS011;64333;50.138;14.332;2023-06-19T13:14:08;9.73;;;8.82;;
75716;SDS011;64333;50.138;14.332;2023-06-19T13:16:33;9.23;;;8.27;;
75716;SDS011;64333;50.138;14.332;2023-06-19T13:18:58;8.90;;;8.10;;
75716;SDS011;64333;50.138;14.332;2023-06-19T13:21:24;9.93;;;8.73;;
75716;SDS011;64333;50.138;14.332;2023-06-19T13:23:49;10.48;;;9.52;;
75716;SDS011;64333;50.138;14.332;2023-06-19T13:26:15;9.20;;;8.40;;
75716;SDS011;64333;50.138;14.332;2023-06-19T13:28:40;9.80;;;8.90;;
75716;SDS011;64333;50.138;14.332;2023-06-19T13:31:06;9.85;;;8.95;;
75716;SDS011;64333;50.138;14.332;2023-06-19T13:33:31;10.77;;;9.77;;
75716;SDS011;64333;50.138;14.332;2023-06-19T13:35:56;10.20;;;8.52;;
75716;SDS011;64333;50.138;14.332;2023-06-19T13:38:22;9.80;;;8.80;;
75716;SDS011;64333;50.138;14.332;2023-06-19T13:40:47;9.57;;;8.68;;
75716;SDS011;64333;50.138;14.332;2023-06-19T13:43:13;9.75;;;8.85;;
75716;SDS011;64333;50.138;14.332;2023-06-19T13:45:39;9.20;;;8.38;;
75716;SDS011;64333;50.138;14.332;2023-06-19T13:48:05;9.25;;;8.35;;
75716;SDS011;64333;50.138;14.332;2023-06-19T13:50:31;9.45;;;8.60;;
75716;SDS011;64333;50.138;14.332;2023-06-19T13:52:57;10.70;;;9.60;;
75716;SDS011;64333;50.138;14.332;2023-06-19T13:55:23;8.25;;;7.45;;
75716;SDS011;64333;50.138;14.332;2023-06-19T13:57:49;9.23;;;8.40;;
75716;SDS011;64333;50.138;14.332;2023-06-19T14:00:14;9.77;;;8.88;;
75716;SDS011;64333;50.138;14.332;2023-06-19T14:02:40;9.38;;;8.45;;
75716;SDS011;64333;50.138;14.332;2023-06-19T14:05:06;9.40;;;8.45;;
75716;SDS011;64333;50.138;14.332;2023-06-19T14:07:33;10.05;;;9.05;;
75716;SDS011;64333;50.138;14.332;2023-06-19T14:10:00;9.43;;;8.60;;
75716;SDS011;64333;50.138;14.332;2023-06-19T14:12:26;8.82;;;7.90;;
75716;SDS011;64333;50.138;14.332;2023-06-19T14:14:51;9.45;;;8.60;;
75716;SDS011;64333;50.138;14.332;2023-06-19T14:17:17;10.20;;;9.10;;
75716;SDS011;64333;50.138;14.332;2023-06-19T14:19:42;9.25;;;8.35;;
75716;SDS011;64333;50.138;14.332;2023-06-19T14:22:08;9.77;;;8.77;;